sensor_id;sensor_type;location;lat;lon;timestamp;P1;durP1;ratioP1;P2;durP2;ratioP2
71610;SDS011;59459;51.172;6.682;2022-11-15T00:02:04;14.67;;;6.60;;
71610;SDS011;59459;51.172;6.682;2022-11-15T00:04:29;14.97;;;6.23;;
71610;SDS011;59459;51.172;6.682;2022-11-15T00:06:57;12.13;;;6.67;;
71610;SDS011;59459;51.172;6.682;2022-11-15T00:09:23;17.15;;;7.00;;
71610;SDS011;59459;51.172;6.682;2022-11-15T00:11:48;13.43;;;6.63;;
71610;SDS011;59459;51.172;6.682;2022-11-15T00:14:13;16.03;;;6.33;;
71610;SDS011;59459;51.172;6.682;2022-11-15T00:16:38;14.37;;;6.50;;
71610;SDS011;59459;51.172;6.682;2022-11-15T00:19:04;14.43;;;6.17;;
71610;SDS011;59459;51.172;6.682;2022-11-15T00:21:29;14.17;;;6.50;;
71610;SDS011;59459;51.172;6.682;2022-11-15T00:23:54;14.03;;;6.27;;
71610;SDS011;59459;51.172;6.682;2022-11-15T00:26:19;15.73;;;7.13;;
71610;SDS011;59459;51.172;6.682;2022-11-15T00:28:45;16.37;;;7.13;;
71610;SDS011;59459;51.172;6.682;2022-11-15T00:31:13;13.15;;;6.45;;
71610;SDS011;59459;51.172;6.682;2022-11-15T00:33:38;12.17;;;6.20;;
71610;SDS011;59459;51.172;6.682;2022-11-15T00:36:04;14.57;;;7.03;;
71610;SDS011;59459;51.172;6.682;2022-11-15T00:38:31;14.45;;;6.60;;
71610;SDS011;59459;51.172;6.682;2022-11-15T00:40:57;14.35;;;6.72;;
71610;SDS011;59459;51.172;6.682;2022-11-15T00:43:22;14.00;;;5.97;;
71610;SDS011;59459;51.172;6.682;2022-11-15T00:45:48;13.70;;;6.53;;
71610;SDS011;59459;51.172;6.682;2022-11-15T00:48:13;13.60;;;5.77;;
71610;SDS011;59459;51.172;6.682;2022-11-15T00:50:38;15.10;;;6.83;;
71610;SDS011;59459;51.172;6.682;2022-11-15T00:53:03;13.20;;;6.77;;
71610;SDS011;59459;51.172;6.682;2022-11-15T00:55:29;13.83;;;6.83;;
71610;SDS011;59459;51.172;6.682;2022-11-15T00:57:54;13.50;;;6.20;;
71610;SDS011;59459;51.172;6.682;2022-11-15T01:00:19;12.97;;;6.60;;
71610;SDS011;59459;51.172;6.682;2022-11-15T01:02:44;16.33;;;6.70;;
71610;SDS011;59459;51.172;6.682;2022-11-15T01:05:09;15.10;;;6.67;;
71610;SDS011;59459;51.172;6.682;2022-11-15T01:07:35;14.20;;;6.53;;
71610;SDS011;59459;51.172;6.682;2022-11-15T01:10:00;14.77;;;6.40;;
71610;SDS011;59459;51.172;6.682;2022-11-15T01:12:25;15.10;;;7.13;;
71610;SDS011;59459;51.172;6.682;2022-11-15T01:14:51;19.53;;;6.70;;
71610;SDS011;59459;51.172;6.682;2022-11-15T01:17:16;13.73;;;6.13;;
71610;SDS011;59459;51.172;6.682;2022-11-15T01:19:41;15.97;;;6.53;;
71610;SDS011;59459;51.172;6.682;2022-11-15T01:22:06;12.50;;;6.77;;
71610;SDS011;59459;51.172;6.682;2022-11-15T01:24:32;14.60;;;6.47;;
71610;SDS011;59459;51.172;6.682;2022-11-15T01:26:57;14.90;;;6.47;;
71610;SDS011;59459;51.172;6.682;2022-11-15T01:29:22;12.07;;;6.60;;
71610;SDS011;59459;51.172;6.682;2022-11-15T01:31:47;13.00;;;6.73;;
71610;SDS011;59459;51.172;6.682;2022-11-15T01:34:13;13.70;;;6.60;;
71610;SDS011;59459;51.172;6.682;2022-11-15T01:36:38;13.80;;;7.03;;
71610;SDS011;59459;51.172;6.682;2022-11-15T01:39:03;13.20;;;6.53;;
71610;SDS011;59459;51.172;6.682;2022-11-15T01:41:29;15.00;;;6.97;;
71610;SDS011;59459;51.172;6.682;2022-11-15T01:43:56;13.50;;;5.97;;
71610;SDS011;59459;51.172;6.682;2022-11-15T01:48:46;13.10;;;6.40;;
71610;SDS011;59459;51.172;6.682;2022-11-15T01:51:13;13.10;;;6.80;;
71610;SDS011;59459;51.172;6.682;2022-11-15T01:53:41;14.05;;;6.60;;
71610;SDS011;59459;51.172;6.682;2022-11-15T01:56:08;17.58;;;6.88;;
71610;SDS011;59459;51.172;6.682;2022-11-15T01:58:34;15.00;;;7.07;;
71610;SDS011;59459;51.172;6.682;2022-11-15T02:01:00;14.73;;;6.53;;
71610;SDS011;59459;51.172;6.682;2022-11-15T02:03:27;18.27;;;6.80;;
71610;SDS011;59459;51.172;6.682;2022-11-15T02:05:54;15.27;;;7.28;;
71610;SDS011;59459;51.172;6.682;2022-11-15T02:08:19;16.50;;;6.40;;
71610;SDS011;59459;51.172;6.682;2022-11-15T02:10:45;12.77;;;6.50;;
71610;SDS011;59459;51.172;6.682;2022-11-15T02:13:10;12.38;;;6.13;;
71610;SDS011;59459;51.172;6.682;2022-11-15T02:15:38;16.50;;;6.50;;
71610;SDS011;59459;51.172;6.682;2022-11-15T02:33:08;16.13;;;6.63;;
71610;SDS011;59459;51.172;6.682;2022-11-15T02:38:08;15.80;;;7.13;;
71610;SDS011;59459;51.172;6.682;2022-11-15T02:43:07;14.38;;;6.43;;
71610;SDS011;59459;51.172;6.682;2022-11-15T02:45:54;18.47;;;8.33;;
71610;SDS011;59459;51.172;6.682;2022-11-15T02:48:22;14.90;;;6.55;;
71610;SDS011;59459;51.172;6.682;2022-11-15T02:50:47;14.77;;;7.03;;
71610;SDS011;59459;51.172;6.682;2022-11-15T02:53:14;15.17;;;6.93;;
71610;SDS011;59459;51.172;6.682;2022-11-15T02:55:43;15.88;;;7.20;;
71610;SDS011;59459;51.172;6.682;2022-11-15T03:00:38;18.03;;;7.33;;
71610;SDS011;59459;51.172;6.682;2022-11-15T03:05:42;16.05;;;7.85;;
71610;SDS011;59459;51.172;6.682;2022-11-15T03:08:10;19.35;;;7.43;;
71610;SDS011;59459;51.172;6.682;2022-11-15T03:13:27;13.87;;;7.07;;
71610;SDS011;59459;51.172;6.682;2022-11-15T03:18:31;14.45;;;6.75;;
71610;SDS011;59459;51.172;6.682;2022-11-15T03:20:58;15.38;;;6.88;;
71610;SDS011;59459;51.172;6.682;2022-11-15T03:23:24;14.85;;;6.63;;
71610;SDS011;59459;51.172;6.682;2022-11-15T03:25:51;16.80;;;6.77;;
71610;SDS011;59459;51.172;6.682;2022-11-15T03:28:21;13.88;;;5.70;;
71610;SDS011;59459;51.172;6.682;2022-11-15T03:30:47;18.23;;;6.45;;
71610;SDS011;59459;51.172;6.682;2022-11-15T03:33:14;14.85;;;7.15;;
71610;SDS011;59459;51.172;6.682;2022-11-15T03:35:40;14.43;;;6.70;;
71610;SDS011;59459;51.172;6.682;2022-11-15T03:38:25;13.70;;;6.80;;
71610;SDS011;59459;51.172;6.682;2022-11-15T03:43:24;14.75;;;6.55;;
71610;SDS011;59459;51.172;6.682;2022-11-15T03:46:07;14.18;;;6.60;;
71610;SDS011;59459;51.172;6.682;2022-11-15T03:48:40;15.35;;;6.78;;
71610;SDS011;59459;51.172;6.682;2022-11-15T03:51:07;15.02;;;7.15;;
71610;SDS011;59459;51.172;6.682;2022-11-15T03:53:32;14.30;;;5.90;;
71610;SDS011;59459;51.172;6.682;2022-11-15T03:55:58;14.67;;;6.50;;
71610;SDS011;59459;51.172;6.682;2022-11-15T03:58:23;13.07;;;6.30;;
71610;SDS011;59459;51.172;6.682;2022-11-15T04:00:48;17.00;;;6.90;;
71610;SDS011;59459;51.172;6.682;2022-11-15T04:03:13;14.33;;;7.33;;
71610;SDS011;59459;51.172;6.682;2022-11-15T04:05:39;13.50;;;6.60;;
71610;SDS011;59459;51.172;6.682;2022-11-15T04:08:04;12.50;;;6.20;;
71610;SDS011;59459;51.172;6.682;2022-11-15T04:10:29;16.02;;;6.95;;
71610;SDS011;59459;51.172;6.682;2022-11-15T04:12:54;16.40;;;7.23;;
71610;SDS011;59459;51.172;6.682;2022-11-15T04:15:20;14.70;;;6.60;;
71610;SDS011;59459;51.172;6.682;2022-11-15T04:17:47;15.63;;;6.93;;
71610;SDS011;59459;51.172;6.682;2022-11-15T04:20:17;12.50;;;6.38;;
71610;SDS011;59459;51.172;6.682;2022-11-15T04:23:01;14.23;;;6.65;;
71610;SDS011;59459;51.172;6.682;2022-11-15T04:25:45;12.60;;;6.30;;
71610;SDS011;59459;51.172;6.682;2022-11-15T04:28:14;14.18;;;6.75;;
71610;SDS011;59459;51.172;6.682;2022-11-15T04:30:39;13.70;;;6.20;;
71610;SDS011;59459;51.172;6.682;2022-11-15T04:33:04;13.53;;;6.00;;
71610;SDS011;59459;51.172;6.682;2022-11-15T04:35:30;12.83;;;6.33;;
71610;SDS011;59459;51.172;6.682;2022-11-15T04:37:56;15.67;;;6.83;;
71610;SDS011;59459;51.172;6.682;2022-11-15T04:40:21;12.32;;;5.88;;
71610;SDS011;59459;51.172;6.682;2022-11-15T04:42:46;13.37;;;6.47;;
71610;SDS011;59459;51.172;6.682;2022-11-15T04:45:12;12.90;;;5.70;;
71610;SDS011;59459;51.172;6.682;2022-11-15T04:47:37;13.20;;;6.30;;
71610;SDS011;59459;51.172;6.682;2022-11-15T04:50:02;15.50;;;7.03;;
71610;SDS011;59459;51.172;6.682;2022-11-15T04:52:28;14.95;;;5.93;;
71610;SDS011;59459;51.172;6.682;2022-11-15T04:54:53;13.37;;;6.23;;
71610;SDS011;59459;51.172;6.682;2022-11-15T04:57:18;12.93;;;6.33;;
71610;SDS011;59459;51.172;6.682;2022-11-15T04:59:43;14.00;;;6.17;;
71610;SDS011;59459;51.172;6.682;2022-11-15T05:02:09;12.20;;;6.20;;
71610;SDS011;59459;51.172;6.682;2022-11-15T05:04:34;11.40;;;6.10;;
71610;SDS011;59459;51.172;6.682;2022-11-15T05:06:59;11.90;;;5.87;;
71610;SDS011;59459;51.172;6.682;2022-11-15T05:09:25;14.03;;;6.97;;
71610;SDS011;59459;51.172;6.682;2022-11-15T05:11:50;13.77;;;6.07;;
71610;SDS011;59459;51.172;6.682;2022-11-15T05:14:15;11.10;;;5.67;;
71610;SDS011;59459;51.172;6.682;2022-11-15T05:16:41;11.73;;;5.90;;
71610;SDS011;59459;51.172;6.682;2022-11-15T05:19:06;12.93;;;5.80;;
71610;SDS011;59459;51.172;6.682;2022-11-15T05:21:32;14.17;;;7.00;;
71610;SDS011;59459;51.172;6.682;2022-11-15T05:23:58;13.80;;;6.97;;
71610;SDS011;59459;51.172;6.682;2022-11-15T05:26:23;13.77;;;6.00;;
71610;SDS011;59459;51.172;6.682;2022-11-15T05:28:58;13.27;;;5.60;;
71610;SDS011;59459;51.172;6.682;2022-11-15T05:31:23;12.98;;;5.55;;
71610;SDS011;59459;51.172;6.682;2022-11-15T05:33:49;14.53;;;5.93;;
71610;SDS011;59459;51.172;6.682;2022-11-15T05:36:33;13.35;;;5.93;;
71610;SDS011;59459;51.172;6.682;2022-11-15T05:39:00;12.75;;;6.38;;
71610;SDS011;59459;51.172;6.682;2022-11-15T05:41:27;13.40;;;6.13;;
71610;SDS011;59459;51.172;6.682;2022-11-15T05:43:54;12.80;;;5.33;;
71610;SDS011;59459;51.172;6.682;2022-11-15T05:46:19;12.03;;;5.40;;
71610;SDS011;59459;51.172;6.682;2022-11-15T05:48:45;10.90;;;5.90;;
71610;SDS011;59459;51.172;6.682;2022-11-15T05:51:11;12.07;;;6.23;;
71610;SDS011;59459;51.172;6.682;2022-11-15T05:53:37;11.57;;;5.60;;
71610;SDS011;59459;51.172;6.682;2022-11-15T05:56:02;13.03;;;6.13;;
71610;SDS011;59459;51.172;6.682;2022-11-15T05:58:28;12.30;;;6.20;;
71610;SDS011;59459;51.172;6.682;2022-11-15T06:00:55;12.48;;;5.97;;
71610;SDS011;59459;51.172;6.682;2022-11-15T06:03:20;12.63;;;5.30;;
71610;SDS011;59459;51.172;6.682;2022-11-15T06:05:46;10.57;;;4.83;;
71610;SDS011;59459;51.172;6.682;2022-11-15T06:08:11;11.23;;;4.63;;
71610;SDS011;59459;51.172;6.682;2022-11-15T06:10:36;10.47;;;4.90;;
71610;SDS011;59459;51.172;6.682;2022-11-15T06:13:02;12.00;;;4.53;;
71610;SDS011;59459;51.172;6.682;2022-11-15T06:15:28;11.68;;;5.53;;
71610;SDS011;59459;51.172;6.682;2022-11-15T06:17:56;10.67;;;5.30;;
71610;SDS011;59459;51.172;6.682;2022-11-15T06:20:23;12.27;;;5.43;;
71610;SDS011;59459;51.172;6.682;2022-11-15T06:22:48;11.70;;;5.43;;
71610;SDS011;59459;51.172;6.682;2022-11-15T06:25:13;11.83;;;5.20;;
71610;SDS011;59459;51.172;6.682;2022-11-15T06:27:38;12.40;;;6.20;;
71610;SDS011;59459;51.172;6.682;2022-11-15T06:30:04;12.97;;;5.03;;
71610;SDS011;59459;51.172;6.682;2022-11-15T06:32:29;12.73;;;4.80;;
71610;SDS011;59459;51.172;6.682;2022-11-15T06:34:55;13.07;;;5.10;;
71610;SDS011;59459;51.172;6.682;2022-11-15T06:37:20;10.90;;;4.60;;
71610;SDS011;59459;51.172;6.682;2022-11-15T06:39:56;10.82;;;5.38;;
71610;SDS011;59459;51.172;6.682;2022-11-15T06:42:24;12.60;;;4.75;;
71610;SDS011;59459;51.172;6.682;2022-11-15T06:44:58;10.37;;;4.33;;
71610;SDS011;59459;51.172;6.682;2022-11-15T06:47:46;10.10;;;4.30;;
71610;SDS011;59459;51.172;6.682;2022-11-15T07:02:38;8.05;;;3.58;;
71610;SDS011;59459;51.172;6.682;2022-11-15T07:08:49;8.98;;;3.47;;
71610;SDS011;59459;51.172;6.682;2022-11-15T07:11:55;8.70;;;3.22;;
71610;SDS011;59459;51.172;6.682;2022-11-15T07:14:20;8.25;;;3.10;;
71610;SDS011;59459;51.172;6.682;2022-11-15T07:16:45;7.00;;;2.90;;
71610;SDS011;59459;51.172;6.682;2022-11-15T07:19:10;10.17;;;3.87;;
71610;SDS011;59459;51.172;6.682;2022-11-15T07:21:36;7.67;;;3.43;;
71610;SDS011;59459;51.172;6.682;2022-11-15T07:24:01;9.40;;;3.33;;
71610;SDS011;59459;51.172;6.682;2022-11-15T07:26:30;8.68;;;3.97;;
71610;SDS011;59459;51.172;6.682;2022-11-15T07:28:55;9.43;;;4.17;;
71610;SDS011;59459;51.172;6.682;2022-11-15T07:31:20;8.90;;;3.27;;
71610;SDS011;59459;51.172;6.682;2022-11-15T07:33:48;9.55;;;3.75;;
71610;SDS011;59459;51.172;6.682;2022-11-15T07:36:16;8.40;;;3.53;;
71610;SDS011;59459;51.172;6.682;2022-11-15T07:38:41;9.95;;;3.72;;
71610;SDS011;59459;51.172;6.682;2022-11-15T07:41:07;9.23;;;3.30;;
71610;SDS011;59459;51.172;6.682;2022-11-15T07:43:32;6.93;;;3.13;;
71610;SDS011;59459;51.172;6.682;2022-11-15T07:45:59;6.83;;;2.53;;
71610;SDS011;59459;51.172;6.682;2022-11-15T07:48:24;8.73;;;3.20;;
71610;SDS011;59459;51.172;6.682;2022-11-15T07:50:49;10.60;;;3.67;;
71610;SDS011;59459;51.172;6.682;2022-11-15T07:53:15;8.53;;;3.33;;
71610;SDS011;59459;51.172;6.682;2022-11-15T07:55:40;9.30;;;3.40;;
71610;SDS011;59459;51.172;6.682;2022-11-15T07:58:07;9.45;;;3.03;;
71610;SDS011;59459;51.172;6.682;2022-11-15T08:00:33;8.07;;;2.75;;
71610;SDS011;59459;51.172;6.682;2022-11-15T08:03:16;7.90;;;3.30;;
71610;SDS011;59459;51.172;6.682;2022-11-15T08:05:42;8.60;;;2.83;;
71610;SDS011;59459;51.172;6.682;2022-11-15T08:08:08;8.10;;;2.90;;
71610;SDS011;59459;51.172;6.682;2022-11-15T08:10:34;6.40;;;2.67;;
71610;SDS011;59459;51.172;6.682;2022-11-15T08:13:18;6.90;;;3.50;;
71610;SDS011;59459;51.172;6.682;2022-11-15T08:15:43;8.60;;;3.72;;
71610;SDS011;59459;51.172;6.682;2022-11-15T08:18:12;7.90;;;3.90;;
71610;SDS011;59459;51.172;6.682;2022-11-15T08:20:37;8.45;;;3.53;;
71610;SDS011;59459;51.172;6.682;2022-11-15T08:23:03;7.13;;;3.07;;
71610;SDS011;59459;51.172;6.682;2022-11-15T08:25:29;9.40;;;3.50;;
71610;SDS011;59459;51.172;6.682;2022-11-15T08:27:56;9.37;;;3.13;;
71610;SDS011;59459;51.172;6.682;2022-11-15T08:30:22;8.30;;;2.75;;
71610;SDS011;59459;51.172;6.682;2022-11-15T08:32:48;7.75;;;3.45;;
71610;SDS011;59459;51.172;6.682;2022-11-15T08:35:13;7.53;;;3.10;;
71610;SDS011;59459;51.172;6.682;2022-11-15T08:46:54;5.45;;;2.08;;
71610;SDS011;59459;51.172;6.682;2022-11-15T08:49:52;5.93;;;2.10;;
71610;SDS011;59459;51.172;6.682;2022-11-15T08:52:40;6.18;;;2.30;;
71610;SDS011;59459;51.172;6.682;2022-11-15T08:55:24;7.83;;;2.60;;
71610;SDS011;59459;51.172;6.682;2022-11-15T09:00:48;5.78;;;2.05;;
71610;SDS011;59459;51.172;6.682;2022-11-15T09:03:37;5.82;;;2.47;;
71610;SDS011;59459;51.172;6.682;2022-11-15T09:06:13;6.65;;;2.38;;
71610;SDS011;59459;51.172;6.682;2022-11-15T09:08:42;6.73;;;1.70;;
71610;SDS011;59459;51.172;6.682;2022-11-15T09:11:10;4.72;;;1.92;;
71610;SDS011;59459;51.172;6.682;2022-11-15T09:13:51;4.38;;;1.65;;
71610;SDS011;59459;51.172;6.682;2022-11-15T09:16:26;7.20;;;2.33;;
71610;SDS011;59459;51.172;6.682;2022-11-15T09:18:52;5.20;;;1.98;;
71610;SDS011;59459;51.172;6.682;2022-11-15T09:21:43;4.27;;;1.30;;
71610;SDS011;59459;51.172;6.682;2022-11-15T09:24:33;4.03;;;1.45;;
71610;SDS011;59459;51.172;6.682;2022-11-15T09:26:59;6.00;;;1.15;;
71610;SDS011;59459;51.172;6.682;2022-11-15T09:29:24;4.60;;;1.50;;
71610;SDS011;59459;51.172;6.682;2022-11-15T09:31:51;4.03;;;1.40;;
71610;SDS011;59459;51.172;6.682;2022-11-15T09:34:19;4.13;;;1.30;;
71610;SDS011;59459;51.172;6.682;2022-11-15T09:36:48;4.40;;;1.02;;
71610;SDS011;59459;51.172;6.682;2022-11-15T09:39:13;4.13;;;1.30;;
71610;SDS011;59459;51.172;6.682;2022-11-15T09:47:21;6.10;;;1.13;;
71610;SDS011;59459;51.172;6.682;2022-11-15T09:49:52;3.60;;;0.90;;
71610;SDS011;59459;51.172;6.682;2022-11-15T09:55:44;4.35;;;1.10;;
71610;SDS011;59459;51.172;6.682;2022-11-15T10:00:55;3.40;;;0.88;;
71610;SDS011;59459;51.172;6.682;2022-11-15T10:03:27;2.75;;;0.65;;
71610;SDS011;59459;51.172;6.682;2022-11-15T10:06:10;3.78;;;0.80;;
71610;SDS011;59459;51.172;6.682;2022-11-15T10:40:32;2.50;;;0.90;;
71610;SDS011;59459;51.172;6.682;2022-11-15T10:43:10;3.10;;;0.75;;
71610;SDS011;59459;51.172;6.682;2022-11-15T10:45:37;3.40;;;0.80;;
71610;SDS011;59459;51.172;6.682;2022-11-15T10:48:36;2.70;;;0.90;;
71610;SDS011;59459;51.172;6.682;2022-11-15T10:50:54;3.35;;;0.77;;
71610;SDS011;59459;51.172;6.682;2022-11-15T10:53:31;3.00;;;0.97;;
71610;SDS011;59459;51.172;6.682;2022-11-15T10:55:58;4.38;;;1.10;;
71610;SDS011;59459;51.172;6.682;2022-11-15T11:04:01;2.07;;;0.97;;
71610;SDS011;59459;51.172;6.682;2022-11-15T11:06:27;3.28;;;1.42;;
71610;SDS011;59459;51.172;6.682;2022-11-15T11:09:00;1.90;;;0.85;;
71610;SDS011;59459;51.172;6.682;2022-11-15T11:11:43;2.70;;;0.70;;
71610;SDS011;59459;51.172;6.682;2022-11-15T11:14:12;1.97;;;0.70;;
71610;SDS011;59459;51.172;6.682;2022-11-15T11:16:42;2.47;;;0.82;;
71610;SDS011;59459;51.172;6.682;2022-11-15T11:32:01;3.97;;;0.70;;
71610;SDS011;59459;51.172;6.682;2022-11-15T11:34:38;2.33;;;0.70;;
71610;SDS011;59459;51.172;6.682;2022-11-15T11:47:53;2.65;;;0.80;;
71610;SDS011;59459;51.172;6.682;2022-11-15T11:50:20;2.40;;;0.50;;
71610;SDS011;59459;51.172;6.682;2022-11-15T11:52:57;2.73;;;0.50;;
71610;SDS011;59459;51.172;6.682;2022-11-15T11:55:24;3.15;;;0.60;;
71610;SDS011;59459;51.172;6.682;2022-11-15T11:58:04;2.53;;;0.50;;
71610;SDS011;59459;51.172;6.682;2022-11-15T12:00:38;3.22;;;0.60;;
71610;SDS011;59459;51.172;6.682;2022-11-15T12:06:14;3.83;;;0.80;;
71610;SDS011;59459;51.172;6.682;2022-11-15T12:14:03;2.15;;;0.70;;
71610;SDS011;59459;51.172;6.682;2022-11-15T12:17:09;2.78;;;0.60;;
71610;SDS011;59459;51.172;6.682;2022-11-15T12:19:36;2.07;;;0.60;;
71610;SDS011;59459;51.172;6.682;2022-11-15T12:25:12;2.10;;;0.57;;
71610;SDS011;59459;51.172;6.682;2022-11-15T12:27:47;2.70;;;0.70;;
71610;SDS011;59459;51.172;6.682;2022-11-15T12:30:19;2.45;;;0.82;;
71610;SDS011;59459;51.172;6.682;2022-11-15T12:35:43;2.60;;;0.90;;
71610;SDS011;59459;51.172;6.682;2022-11-15T12:38:48;3.50;;;0.90;;
71610;SDS011;59459;51.172;6.682;2022-11-15T12:41:14;2.95;;;1.00;;
71610;SDS011;59459;51.172;6.682;2022-11-15T14:12:49;2.80;;;0.73;;
71610;SDS011;59459;51.172;6.682;2022-11-15T14:26:24;5.65;;;1.20;;
71610;SDS011;59459;51.172;6.682;2022-11-15T14:50:46;4.70;;;1.40;;
71610;SDS011;59459;51.172;6.682;2022-11-15T14:59:54;5.60;;;1.35;;
71610;SDS011;59459;51.172;6.682;2022-11-15T15:02:27;7.80;;;1.85;;
71610;SDS011;59459;51.172;6.682;2022-11-15T15:20:07;7.00;;;1.60;;
71610;SDS011;59459;51.172;6.682;2022-11-15T15:22:33;4.75;;;1.30;;
71610;SDS011;59459;51.172;6.682;2022-11-15T15:31:21;4.13;;;1.67;;
71610;SDS011;59459;51.172;6.682;2022-11-15T15:39:43;4.70;;;1.92;;
71610;SDS011;59459;51.172;6.682;2022-11-15T15:45:45;4.28;;;1.35;;
71610;SDS011;59459;51.172;6.682;2022-11-15T15:54:23;5.40;;;1.63;;
71610;SDS011;59459;51.172;6.682;2022-11-15T15:56:48;4.13;;;1.40;;
71610;SDS011;59459;51.172;6.682;2022-11-15T15:59:13;7.20;;;2.30;;
71610;SDS011;59459;51.172;6.682;2022-11-15T16:01:38;4.73;;;1.60;;
71610;SDS011;59459;51.172;6.682;2022-11-15T16:04:04;5.57;;;1.60;;
71610;SDS011;59459;51.172;6.682;2022-11-15T16:06:33;5.00;;;1.37;;
71610;SDS011;59459;51.172;6.682;2022-11-15T16:08:59;4.38;;;1.80;;
71610;SDS011;59459;51.172;6.682;2022-11-15T16:11:24;7.80;;;1.80;;
71610;SDS011;59459;51.172;6.682;2022-11-15T16:13:50;4.63;;;1.77;;
71610;SDS011;59459;51.172;6.682;2022-11-15T16:16:15;5.60;;;1.73;;
71610;SDS011;59459;51.172;6.682;2022-11-15T16:18:41;6.43;;;1.53;;
71610;SDS011;59459;51.172;6.682;2022-11-15T16:21:07;6.60;;;1.80;;
71610;SDS011;59459;51.172;6.682;2022-11-15T16:23:32;6.70;;;2.17;;
71610;SDS011;59459;51.172;6.682;2022-11-15T16:25:57;5.37;;;2.37;;
71610;SDS011;59459;51.172;6.682;2022-11-15T16:28:24;5.70;;;1.97;;
71610;SDS011;59459;51.172;6.682;2022-11-15T16:30:58;6.00;;;1.35;;
71610;SDS011;59459;51.172;6.682;2022-11-15T16:33:23;4.50;;;1.50;;
71610;SDS011;59459;51.172;6.682;2022-11-15T16:35:49;5.57;;;1.80;;
71610;SDS011;59459;51.172;6.682;2022-11-15T16:38:14;4.30;;;1.40;;
71610;SDS011;59459;51.172;6.682;2022-11-15T16:40:40;4.97;;;1.80;;
71610;SDS011;59459;51.172;6.682;2022-11-15T16:43:05;4.63;;;1.30;;
71610;SDS011;59459;51.172;6.682;2022-11-15T16:45:31;5.03;;;1.70;;
71610;SDS011;59459;51.172;6.682;2022-11-15T16:47:58;5.47;;;1.73;;
71610;SDS011;59459;51.172;6.682;2022-11-15T16:50:24;9.40;;;2.00;;
71610;SDS011;59459;51.172;6.682;2022-11-15T16:52:51;3.72;;;1.55;;
71610;SDS011;59459;51.172;6.682;2022-11-15T16:55:20;4.73;;;1.90;;
71610;SDS011;59459;51.172;6.682;2022-11-15T16:57:50;6.55;;;1.35;;
71610;SDS011;59459;51.172;6.682;2022-11-15T17:00:19;7.68;;;1.60;;
71610;SDS011;59459;51.172;6.682;2022-11-15T17:02:45;7.57;;;1.80;;
71610;SDS011;59459;51.172;6.682;2022-11-15T17:05:11;7.40;;;2.13;;
71610;SDS011;59459;51.172;6.682;2022-11-15T17:07:48;6.97;;;1.98;;
71610;SDS011;59459;51.172;6.682;2022-11-15T17:10:18;7.75;;;1.63;;
71610;SDS011;59459;51.172;6.682;2022-11-15T17:48:39;4.97;;;1.90;;
71610;SDS011;59459;51.172;6.682;2022-11-15T17:51:09;3.95;;;1.45;;
71610;SDS011;59459;51.172;6.682;2022-11-15T17:53:35;5.33;;;1.40;;
71610;SDS011;59459;51.172;6.682;2022-11-15T17:56:05;6.32;;;1.85;;
71610;SDS011;59459;51.172;6.682;2022-11-15T17:58:31;3.83;;;1.50;;
71610;SDS011;59459;51.172;6.682;2022-11-15T18:01:11;5.53;;;2.20;;
71610;SDS011;59459;51.172;6.682;2022-11-15T18:03:41;4.28;;;1.60;;
71610;SDS011;59459;51.172;6.682;2022-11-15T18:06:07;5.40;;;1.77;;
71610;SDS011;59459;51.172;6.682;2022-11-15T18:08:34;5.20;;;1.80;;
71610;SDS011;59459;51.172;6.682;2022-11-15T18:11:16;5.57;;;1.80;;
71610;SDS011;59459;51.172;6.682;2022-11-15T18:13:43;6.82;;;2.30;;
71610;SDS011;59459;51.172;6.682;2022-11-15T18:16:12;5.83;;;2.00;;
71610;SDS011;59459;51.172;6.682;2022-11-15T18:18:37;6.03;;;2.10;;
71610;SDS011;59459;51.172;6.682;2022-11-15T18:21:07;5.33;;;2.10;;
71610;SDS011;59459;51.172;6.682;2022-11-15T18:36:24;6.88;;;2.60;;
71610;SDS011;59459;51.172;6.682;2022-11-15T18:39:02;6.57;;;2.80;;
71610;SDS011;59459;51.172;6.682;2022-11-15T18:41:50;5.25;;;2.15;;
71610;SDS011;59459;51.172;6.682;2022-11-15T18:44:16;7.60;;;2.40;;
71610;SDS011;59459;51.172;6.682;2022-11-15T18:46:41;5.97;;;2.73;;
71610;SDS011;59459;51.172;6.682;2022-11-15T18:49:09;8.90;;;3.22;;
71610;SDS011;59459;51.172;6.682;2022-11-15T18:51:35;6.30;;;2.65;;
71610;SDS011;59459;51.172;6.682;2022-11-15T18:54:02;8.05;;;3.15;;
71610;SDS011;59459;51.172;6.682;2022-11-15T18:56:28;5.80;;;2.47;;
71610;SDS011;59459;51.172;6.682;2022-11-15T18:58:55;6.40;;;2.67;;
71610;SDS011;59459;51.172;6.682;2022-11-15T19:01:22;7.57;;;2.60;;
71610;SDS011;59459;51.172;6.682;2022-11-15T19:03:48;7.80;;;3.20;;
71610;SDS011;59459;51.172;6.682;2022-11-15T19:06:15;6.93;;;2.70;;
71610;SDS011;59459;51.172;6.682;2022-11-15T19:08:41;6.17;;;2.60;;
71610;SDS011;59459;51.172;6.682;2022-11-15T19:11:10;8.13;;;2.65;;
71610;SDS011;59459;51.172;6.682;2022-11-15T19:13:36;6.97;;;3.25;;
71610;SDS011;59459;51.172;6.682;2022-11-15T19:16:01;9.30;;;3.20;;
71610;SDS011;59459;51.172;6.682;2022-11-15T19:18:27;6.88;;;3.00;;
71610;SDS011;59459;51.172;6.682;2022-11-15T19:20:53;6.83;;;2.83;;
71610;SDS011;59459;51.172;6.682;2022-11-15T19:23:24;7.72;;;2.95;;
71610;SDS011;59459;51.172;6.682;2022-11-15T19:25:53;6.22;;;2.88;;
71610;SDS011;59459;51.172;6.682;2022-11-15T19:28:19;7.53;;;3.10;;
71610;SDS011;59459;51.172;6.682;2022-11-15T19:30:50;7.38;;;3.90;;
71610;SDS011;59459;51.172;6.682;2022-11-15T19:33:16;8.77;;;3.17;;
71610;SDS011;59459;51.172;6.682;2022-11-15T19:35:42;8.60;;;3.30;;
71610;SDS011;59459;51.172;6.682;2022-11-15T19:38:07;8.93;;;3.47;;
71610;SDS011;59459;51.172;6.682;2022-11-15T19:40:32;8.53;;;3.67;;
71610;SDS011;59459;51.172;6.682;2022-11-15T19:42:58;7.20;;;3.07;;
71610;SDS011;59459;51.172;6.682;2022-11-15T19:45:23;8.70;;;4.17;;
71610;SDS011;59459;51.172;6.682;2022-11-15T19:47:48;8.20;;;3.90;;
71610;SDS011;59459;51.172;6.682;2022-11-15T19:50:14;11.53;;;4.00;;
71610;SDS011;59459;51.172;6.682;2022-11-15T19:52:39;8.10;;;3.80;;
71610;SDS011;59459;51.172;6.682;2022-11-15T19:55:04;9.37;;;4.03;;
71610;SDS011;59459;51.172;6.682;2022-11-15T19:57:30;8.65;;;4.07;;
71610;SDS011;59459;51.172;6.682;2022-11-15T19:59:55;9.70;;;4.10;;
71610;SDS011;59459;51.172;6.682;2022-11-15T20:02:20;10.47;;;5.07;;
71610;SDS011;59459;51.172;6.682;2022-11-15T20:04:45;8.77;;;4.33;;
71610;SDS011;59459;51.172;6.682;2022-11-15T20:07:11;10.37;;;5.67;;
71610;SDS011;59459;51.172;6.682;2022-11-15T20:09:36;12.47;;;5.40;;
71610;SDS011;59459;51.172;6.682;2022-11-15T20:12:02;9.73;;;4.82;;
71610;SDS011;59459;51.172;6.682;2022-11-15T20:14:27;10.93;;;5.70;;
71610;SDS011;59459;51.172;6.682;2022-11-15T20:16:54;10.50;;;5.43;;
71610;SDS011;59459;51.172;6.682;2022-11-15T20:19:19;10.53;;;6.03;;
71610;SDS011;59459;51.172;6.682;2022-11-15T20:21:44;11.03;;;5.50;;
71610;SDS011;59459;51.172;6.682;2022-11-15T20:24:10;10.70;;;5.57;;
71610;SDS011;59459;51.172;6.682;2022-11-15T20:26:35;13.80;;;6.47;;
71610;SDS011;59459;51.172;6.682;2022-11-15T20:29:01;10.60;;;5.63;;
71610;SDS011;59459;51.172;6.682;2022-11-15T20:31:27;12.45;;;5.93;;
71610;SDS011;59459;51.172;6.682;2022-11-15T20:33:52;12.27;;;6.17;;
71610;SDS011;59459;51.172;6.682;2022-11-15T20:36:18;11.63;;;6.00;;
71610;SDS011;59459;51.172;6.682;2022-11-15T20:38:43;10.97;;;5.73;;
71610;SDS011;59459;51.172;6.682;2022-11-15T20:41:08;12.77;;;5.73;;
71610;SDS011;59459;51.172;6.682;2022-11-15T20:43:34;12.32;;;5.90;;
71610;SDS011;59459;51.172;6.682;2022-11-15T20:45:59;11.97;;;5.63;;
71610;SDS011;59459;51.172;6.682;2022-11-15T20:48:24;11.10;;;5.90;;
71610;SDS011;59459;51.172;6.682;2022-11-15T20:50:50;11.47;;;5.33;;
71610;SDS011;59459;51.172;6.682;2022-11-15T20:53:16;11.30;;;5.13;;